createdAt,value
2023-05-20T00:00:00.538Z,11.97
2023-05-20T00:01:00.552Z,12.01
2023-05-20T00:02:00.520Z,12.01
2023-05-20T00:03:00.590Z,12.01
2023-05-20T00:04:00.663Z,12.01
2023-05-20T00:05:00.652Z,12.01
2023-05-20T00:06:00.585Z,12.00
2023-05-20T00:07:00.520Z,12.00
2023-05-20T00:08:00.550Z,12.00
2023-05-20T00:09:00.584Z,12.00
2023-05-20T00:10:00.553Z,12.00
2023-05-20T00:11:00.526Z,12.01
2023-05-20T00:12:00.529Z,12.01
2023-05-20T00:13:00.595Z,12.01
2023-05-20T00:14:00.520Z,12.01
2023-05-20T00:15:00.688Z,12.01
2023-05-20T00:16:00.665Z,11.99
2023-05-20T00:17:00.615Z,11.99
2023-05-20T00:18:01.180Z,11.99
2023-05-20T00:19:00.567Z,11.99
2023-05-20T00:20:00.544Z,11.99
2023-05-20T00:21:00.525Z,11.97
2023-05-20T00:22:00.570Z,11.97
2023-05-20T00:23:00.526Z,11.97
2023-05-20T00:24:00.531Z,11.97
2023-05-20T00:25:00.533Z,11.97
2023-05-20T00:26:01.025Z,11.96
2023-05-20T00:27:00.538Z,11.96
2023-05-20T00:28:00.561Z,11.96
2023-05-20T00:29:00.522Z,11.96
2023-05-20T00:30:00.528Z,11.96
2023-05-20T00:31:00.523Z,11.91
2023-05-20T00:32:00.591Z,11.91
2023-05-20T00:33:00.595Z,11.91
2023-05-20T00:34:00.525Z,11.91
2023-05-20T00:35:00.778Z,11.91
2023-05-20T00:36:00.904Z,11.81
2023-05-20T00:37:00.556Z,11.81
2023-05-20T00:38:00.518Z,11.81
2023-05-20T00:39:00.573Z,11.81
2023-05-20T00:40:00.556Z,11.81
2023-05-20T00:41:00.589Z,11.79
2023-05-20T00:42:00.517Z,11.79
2023-05-20T00:43:01.294Z,11.79
2023-05-20T00:44:00.526Z,11.79
2023-05-20T00:45:00.532Z,11.79
2023-05-20T00:46:00.635Z,11.77
2023-05-20T00:47:00.559Z,11.77
2023-05-20T00:48:01.156Z,11.77
2023-05-20T00:49:00.602Z,11.77
2023-05-20T00:50:00.578Z,11.77
2023-05-20T00:51:00.578Z,11.72
2023-05-20T00:52:00.570Z,11.72
2023-05-20T00:53:00.552Z,11.72
2023-05-20T00:54:00.570Z,11.72
2023-05-20T00:55:00.642Z,11.72
2023-05-20T00:56:00.559Z,11.62
2023-05-20T00:57:00.962Z,11.62
2023-05-20T00:58:00.859Z,11.62
2023-05-20T00:59:00.565Z,11.62
2023-05-20T01:00:00.583Z,11.62
2023-05-20T01:01:00.593Z,11.59
2023-05-20T01:02:01.481Z,11.59
2023-05-20T01:03:00.705Z,11.59
2023-05-20T01:04:01.576Z,11.59
2023-05-20T01:05:00.556Z,11.59
2023-05-20T01:06:01.279Z,11.55
2023-05-20T01:07:02.482Z,11.55
2023-05-20T01:08:00.593Z,11.55
2023-05-20T01:09:00.556Z,11.55
2023-05-20T01:10:00.815Z,11.55
2023-05-20T01:11:10.292Z,11.54
2023-05-20T01:12:04.039Z,11.54
2023-05-20T01:13:03.539Z,11.54
2023-05-20T01:14:02.617Z,11.54
2023-05-20T01:15:04.323Z,11.54
2023-05-20T01:16:02.217Z,11.50
2023-05-20T01:17:01.461Z,11.50
2023-05-20T01:18:02.030Z,11.50
2023-05-20T01:19:01.778Z,11.50
2023-05-20T01:20:00.557Z,11.50
2023-05-20T01:21:01.340Z,11.47
2023-05-20T01:22:04.458Z,11.47
2023-05-20T01:23:00.541Z,11.47
2023-05-20T01:24:00.517Z,11.47
2023-05-20T01:25:00.523Z,11.47
2023-05-20T01:26:00.554Z,11.40
2023-05-20T01:27:00.542Z,11.40
2023-05-20T01:28:00.674Z,11.40
2023-05-20T01:29:00.654Z,11.40
2023-05-20T01:30:00.598Z,11.40
2023-05-20T01:31:01.643Z,11.35
2023-05-20T01:32:00.793Z,11.35
2023-05-20T01:33:03.869Z,11.35
2023-05-20T01:34:01.031Z,11.35
2023-05-20T01:35:00.627Z,11.35
2023-05-20T01:36:00.815Z,11.27
2023-05-20T01:37:01.518Z,11.27
2023-05-20T01:38:02.095Z,11.27
2023-05-20T01:39:01.527Z,11.27
2023-05-20T01:40:01.832Z,11.27
2023-05-20T01:41:01.655Z,11.16
2023-05-20T01:42:01.265Z,11.16
2023-05-20T01:43:01.609Z,11.16
2023-05-20T01:44:00.911Z,11.16
2023-05-20T01:45:00.575Z,11.16
2023-05-20T01:46:00.721Z,11.01
2023-05-20T01:47:00.587Z,11.01
2023-05-20T01:48:01.781Z,11.01
2023-05-20T01:49:00.556Z,11.01
2023-05-20T01:50:00.525Z,11.01
2023-05-20T01:51:00.524Z,10.92
2023-05-20T01:52:00.566Z,10.92
2023-05-20T01:53:00.559Z,10.92
2023-05-20T01:54:00.621Z,10.92
2023-05-20T01:55:00.579Z,10.92
2023-05-20T01:56:00.539Z,10.83
2023-05-20T01:57:00.532Z,10.83
2023-05-20T01:58:00.933Z,10.83
2023-05-20T01:59:00.518Z,10.83
2023-05-20T02:00:00.617Z,10.83
2023-05-20T02:01:00.569Z,10.72
2023-05-20T02:02:00.607Z,10.72
2023-05-20T02:03:00.563Z,10.72
2023-05-20T02:04:00.548Z,10.72
2023-05-20T02:05:00.551Z,10.72
2023-05-20T02:06:00.611Z,10.64
2023-05-20T02:07:00.521Z,10.64
2023-05-20T02:08:00.555Z,10.64
2023-05-20T02:09:00.977Z,10.64
2023-05-20T02:10:00.567Z,10.64
2023-05-20T02:11:00.524Z,10.62
2023-05-20T02:12:00.537Z,10.62
2023-05-20T02:13:00.539Z,10.62
2023-05-20T02:14:00.589Z,10.62
2023-05-20T02:15:00.659Z,10.62
2023-05-20T02:16:00.693Z,10.61
2023-05-20T02:17:00.525Z,10.61
2023-05-20T02:18:00.569Z,10.61
2023-05-20T02:19:00.573Z,10.61
2023-05-20T02:20:00.553Z,10.61
2023-05-20T02:21:02.318Z,10.68
2023-05-20T02:22:00.529Z,10.68
2023-05-20T02:23:00.613Z,10.68
2023-05-20T02:24:00.549Z,10.68
2023-05-20T02:25:00.539Z,10.68
2023-05-20T02:26:01.642Z,10.71
2023-05-20T02:27:00.526Z,10.71
2023-05-20T02:28:00.538Z,10.71
2023-05-20T02:29:00.590Z,10.71
2023-05-20T02:30:00.587Z,10.71
2023-05-20T02:31:00.531Z,10.72
2023-05-20T02:32:00.523Z,10.72
2023-05-20T02:33:00.663Z,10.72
2023-05-20T02:34:00.575Z,10.72
2023-05-20T02:35:00.527Z,10.72
2023-05-20T02:36:00.564Z,10.73
2023-05-20T02:37:00.549Z,10.73
2023-05-20T02:38:00.525Z,10.73
2023-05-20T02:39:00.524Z,10.73
2023-05-20T02:40:00.547Z,10.73
2023-05-20T02:41:00.561Z,10.75
2023-05-20T02:42:00.528Z,10.75
2023-05-20T02:43:00.519Z,10.75
2023-05-20T02:44:00.554Z,10.75
2023-05-20T02:45:00.530Z,10.75
2023-05-20T02:46:00.670Z,10.68
2023-05-20T02:47:00.529Z,10.68
2023-05-20T02:48:00.674Z,10.68
2023-05-20T02:49:00.527Z,10.68
2023-05-20T02:50:00.559Z,10.68
2023-05-20T02:51:00.539Z,10.70
2023-05-20T02:52:00.558Z,10.70
2023-05-20T02:53:00.532Z,10.70
2023-05-20T02:54:00.524Z,10.70
2023-05-20T02:55:00.606Z,10.70
2023-05-20T02:56:00.568Z,10.68
2023-05-20T02:57:00.516Z,10.68
2023-05-20T02:58:00.559Z,10.68
2023-05-20T02:59:00.531Z,10.68
2023-05-20T03:00:00.529Z,10.68
2023-05-20T03:01:01.051Z,10.71
2023-05-20T03:02:00.586Z,10.71
2023-05-20T03:03:00.569Z,10.71
2023-05-20T03:04:01.540Z,10.71
2023-05-20T03:05:00.516Z,10.71
2023-05-20T03:06:00.550Z,10.67
2023-05-20T03:07:00.530Z,10.67
2023-05-20T03:08:00.566Z,10.67
2023-05-20T03:09:00.572Z,10.67
2023-05-20T03:10:00.741Z,10.67
2023-05-20T03:11:00.649Z,10.63
2023-05-20T03:12:00.612Z,10.63
2023-05-20T03:13:00.536Z,10.63
2023-05-20T03:14:00.631Z,10.63
2023-05-20T03:15:00.597Z,10.63
2023-05-20T03:16:00.646Z,10.61
2023-05-20T03:17:00.528Z,10.61
2023-05-20T03:18:00.685Z,10.61
2023-05-20T03:19:00.719Z,10.61
2023-05-20T03:20:00.518Z,10.61
2023-05-20T03:21:00.545Z,10.62
2023-05-20T03:22:00.857Z,10.62
2023-05-20T03:23:00.541Z,10.62
2023-05-20T03:24:00.520Z,10.62
2023-05-20T03:25:00.531Z,10.62
2023-05-20T03:26:00.562Z,10.64
2023-05-20T03:27:00.542Z,10.64
2023-05-20T03:28:00.527Z,10.64
2023-05-20T03:29:00.518Z,10.64
2023-05-20T03:30:00.528Z,10.64
2023-05-20T03:31:00.541Z,10.61
2023-05-20T03:32:00.554Z,10.61
2023-05-20T03:33:00.553Z,10.61
2023-05-20T03:34:00.527Z,10.61
2023-05-20T03:35:00.533Z,10.61
2023-05-20T03:36:00.518Z,10.59
2023-05-20T03:37:00.507Z,10.59
2023-05-20T03:38:00.524Z,10.59
2023-05-20T03:39:00.555Z,10.59
2023-05-20T03:40:00.507Z,10.59
2023-05-20T03:41:00.516Z,10.65
2023-05-20T03:42:00.522Z,10.65
2023-05-20T03:43:00.552Z,10.65
2023-05-20T03:44:00.514Z,10.65
2023-05-20T03:45:00.595Z,10.65
2023-05-20T03:46:00.519Z,10.61
2023-05-20T03:47:00.547Z,10.61
2023-05-20T03:48:00.547Z,10.61
2023-05-20T03:49:00.510Z,10.61
2023-05-20T03:50:00.537Z,10.61
2023-05-20T03:51:00.558Z,10.62
2023-05-20T03:52:01.951Z,10.62
2023-05-20T03:53:00.561Z,10.62
2023-05-20T03:54:00.567Z,10.62
2023-05-20T03:55:00.526Z,10.62
2023-05-20T03:56:00.523Z,10.51
2023-05-20T03:57:00.514Z,10.51
2023-05-20T03:58:00.523Z,10.51
2023-05-20T03:59:00.548Z,10.51
2023-05-20T04:00:00.521Z,10.51
2023-05-20T04:01:00.525Z,10.45
2023-05-20T04:02:00.538Z,10.45
2023-05-20T04:03:00.665Z,10.45
2023-05-20T04:04:00.597Z,10.45
2023-05-20T04:05:00.648Z,10.45
2023-05-20T04:06:00.567Z,10.51
2023-05-20T04:07:00.540Z,10.51
2023-05-20T04:08:00.508Z,10.51
2023-05-20T04:09:00.520Z,10.51
2023-05-20T04:10:00.880Z,10.51
2023-05-20T04:11:00.518Z,10.53
2023-05-20T04:12:00.520Z,10.53
2023-05-20T04:13:00.524Z,10.53
2023-05-20T04:14:00.540Z,10.53
2023-05-20T04:15:00.559Z,10.53
2023-05-20T04:16:00.563Z,10.51
2023-05-20T04:17:02.530Z,10.51
2023-05-20T04:18:00.554Z,10.51
2023-05-20T04:19:00.545Z,10.51
2023-05-20T04:20:00.524Z,10.51
2023-05-20T04:21:00.510Z,10.58
2023-05-20T04:22:00.559Z,10.58
2023-05-20T04:23:00.517Z,10.58
2023-05-20T04:24:00.511Z,10.58
2023-05-20T04:25:00.524Z,10.58
2023-05-20T04:26:00.524Z,10.66
2023-05-20T04:27:00.569Z,10.66
2023-05-20T04:28:00.576Z,10.66
2023-05-20T04:29:01.038Z,10.66
2023-05-20T04:30:00.534Z,10.66
2023-05-20T04:31:00.947Z,10.68
2023-05-20T04:32:00.569Z,10.68
2023-05-20T04:33:00.554Z,10.68
2023-05-20T04:34:00.565Z,10.68
2023-05-20T04:35:00.516Z,10.68
2023-05-20T04:36:00.528Z,10.60
2023-05-20T04:37:00.522Z,10.60
2023-05-20T04:38:00.554Z,10.60
2023-05-20T04:39:00.531Z,10.60
2023-05-20T04:40:00.525Z,10.60
2023-05-20T04:41:00.542Z,10.68
2023-05-20T04:42:00.548Z,10.68
2023-05-20T04:43:00.526Z,10.68
2023-05-20T04:44:00.526Z,10.68
2023-05-20T04:45:00.558Z,10.68
2023-05-20T04:46:00.552Z,10.71
2023-05-20T04:47:00.513Z,10.71
2023-05-20T04:48:00.667Z,10.71
2023-05-20T04:49:00.617Z,10.71
2023-05-20T04:50:00.540Z,10.71
2023-05-20T04:51:00.579Z,10.64
2023-05-20T04:52:00.516Z,10.64
2023-05-20T04:53:00.524Z,10.64
2023-05-20T04:54:00.514Z,10.64
2023-05-20T04:55:00.584Z,10.64
2023-05-20T04:56:00.572Z,10.69
2023-05-20T04:57:00.518Z,10.69
2023-05-20T04:58:00.522Z,10.69
2023-05-20T04:59:00.623Z,10.69
2023-05-20T05:00:00.664Z,10.69
2023-05-20T05:01:00.510Z,10.73
2023-05-20T05:02:00.616Z,10.73
2023-05-20T05:03:00.556Z,10.73
2023-05-20T05:04:00.547Z,10.73
2023-05-20T05:05:00.591Z,10.73
2023-05-20T05:06:00.518Z,10.83
2023-05-20T05:07:00.533Z,10.83
2023-05-20T05:08:00.640Z,10.83
2023-05-20T05:09:00.596Z,10.83
2023-05-20T05:10:00.544Z,10.83
2023-05-20T05:11:00.573Z,10.82
2023-05-20T05:12:00.563Z,10.82
2023-05-20T05:13:00.882Z,10.82
2023-05-20T05:14:01.206Z,10.82
2023-05-20T05:15:00.619Z,10.82
2023-05-20T05:16:01.492Z,10.89
2023-05-20T05:17:00.564Z,10.89
2023-05-20T05:18:00.704Z,10.89
2023-05-20T05:19:00.581Z,10.89
2023-05-20T05:20:00.549Z,10.89
2023-05-20T05:21:02.417Z,10.82
2023-05-20T05:22:00.516Z,10.82
2023-05-20T05:23:00.611Z,10.82
2023-05-20T05:24:00.526Z,10.82
2023-05-20T05:25:00.585Z,10.82
2023-05-20T05:26:00.594Z,10.96
2023-05-20T05:27:00.516Z,10.96
2023-05-20T05:28:00.545Z,10.96
2023-05-20T05:29:00.524Z,10.96
2023-05-20T05:30:01.197Z,10.96
2023-05-20T05:31:00.519Z,10.91
2023-05-20T05:32:00.588Z,10.91
2023-05-20T05:33:00.677Z,10.91
2023-05-20T05:34:00.568Z,10.91
2023-05-20T05:35:00.552Z,10.91
2023-05-20T05:36:00.520Z,10.84
2023-05-20T05:37:00.516Z,10.84
2023-05-20T05:38:00.918Z,10.84
2023-05-20T05:39:00.617Z,10.84
2023-05-20T05:40:00.558Z,10.84
2023-05-20T05:41:00.531Z,10.91
2023-05-20T05:42:00.540Z,10.91
2023-05-20T05:43:00.560Z,10.91
2023-05-20T05:44:00.643Z,10.91
2023-05-20T05:45:00.720Z,10.91
2023-05-20T05:46:00.569Z,10.87
2023-05-20T05:47:00.593Z,10.87
2023-05-20T05:48:00.584Z,10.87
2023-05-20T05:49:00.511Z,10.87
2023-05-20T05:50:00.607Z,10.87
2023-05-20T05:51:00.540Z,11.14
2023-05-20T05:52:00.536Z,11.14
2023-05-20T05:53:00.665Z,11.14
2023-05-20T05:54:00.519Z,11.14
2023-05-20T05:55:00.807Z,11.14
2023-05-20T05:56:00.594Z,11.10
2023-05-20T05:57:00.522Z,11.10
2023-05-20T05:58:00.526Z,11.10
2023-05-20T05:59:00.518Z,11.10
2023-05-20T06:00:00.624Z,11.10
2023-05-20T06:01:00.633Z,11.13
2023-05-20T06:02:00.595Z,11.13
2023-05-20T06:03:00.684Z,11.13
2023-05-20T06:04:00.654Z,11.13
2023-05-20T06:05:01.334Z,11.13
2023-05-20T06:06:00.561Z,11.14
2023-05-20T06:07:00.556Z,11.14
2023-05-20T06:08:00.553Z,11.14
2023-05-20T06:09:00.535Z,11.14
2023-05-20T06:10:00.532Z,11.14
2023-05-20T06:11:00.549Z,11.28
2023-05-20T06:12:00.518Z,11.28
2023-05-20T06:13:00.516Z,11.28
2023-05-20T06:14:00.770Z,11.28
2023-05-20T06:15:00.550Z,11.28
2023-05-20T06:16:00.516Z,11.40
2023-05-20T06:17:00.870Z,11.40
2023-05-20T06:18:00.660Z,11.40
2023-05-20T06:19:03.398Z,11.40
2023-05-20T06:20:00.559Z,11.40
2023-05-20T06:21:00.532Z,11.31
2023-05-20T06:22:00.513Z,11.31
2023-05-20T06:23:00.700Z,11.31
2023-05-20T06:24:00.512Z,11.31
2023-05-20T06:25:00.565Z,11.31
2023-05-20T06:26:00.524Z,11.52
2023-05-20T06:27:00.518Z,11.52
2023-05-20T06:28:00.562Z,11.52
2023-05-20T06:29:01.113Z,11.52
2023-05-20T06:30:00.582Z,11.52
2023-05-20T06:31:00.556Z,11.47
2023-05-20T06:32:00.517Z,11.47
2023-05-20T06:33:00.563Z,11.47
2023-05-20T06:34:00.550Z,11.47
2023-05-20T06:35:00.555Z,11.47
2023-05-20T06:36:00.528Z,11.42
2023-05-20T06:37:00.508Z,11.42
2023-05-20T06:38:01.004Z,11.42
2023-05-20T06:39:00.518Z,11.42
2023-05-20T06:40:00.536Z,11.42
2023-05-20T06:41:00.549Z,11.61
2023-05-20T06:42:00.515Z,11.61
2023-05-20T06:43:00.566Z,11.61
2023-05-20T06:44:00.521Z,11.61
2023-05-20T06:45:00.594Z,11.61
2023-05-20T06:46:00.546Z,11.84
2023-05-20T06:47:00.512Z,11.84
2023-05-20T06:48:00.581Z,11.84
2023-05-20T06:49:00.571Z,11.84
2023-05-20T06:50:00.615Z,11.84
2023-05-20T06:51:00.522Z,12.04
2023-05-20T06:52:00.519Z,12.04
2023-05-20T06:53:00.564Z,12.04
2023-05-20T06:54:00.590Z,12.04
2023-05-20T06:55:00.600Z,12.04
2023-05-20T06:56:00.786Z,12.05
2023-05-20T06:57:00.600Z,12.05
2023-05-20T06:58:00.521Z,12.05
2023-05-20T06:59:00.531Z,12.05
2023-05-20T07:00:00.588Z,12.05
2023-05-20T07:01:00.662Z,12.26
2023-05-20T07:02:00.585Z,12.26
2023-05-20T07:03:00.615Z,12.26
2023-05-20T07:04:00.633Z,12.26
2023-05-20T07:05:00.557Z,12.26
2023-05-20T07:06:00.617Z,12.33
2023-05-20T07:07:00.556Z,12.33
2023-05-20T07:08:00.522Z,12.33
2023-05-20T07:09:00.540Z,12.33
2023-05-20T07:10:00.535Z,12.33
2023-05-20T07:11:00.519Z,12.37
2023-05-20T07:12:00.545Z,12.37
2023-05-20T07:13:00.559Z,12.37
2023-05-20T07:14:00.563Z,12.37
2023-05-20T07:15:00.569Z,12.37
2023-05-20T07:16:00.580Z,12.59
2023-05-20T07:17:00.524Z,12.59
2023-05-20T07:18:00.599Z,12.59
2023-05-20T07:19:00.644Z,12.59
2023-05-20T07:20:00.605Z,12.59
2023-05-20T07:21:00.559Z,12.81
2023-05-20T07:22:00.517Z,12.81
2023-05-20T07:23:00.524Z,12.81
2023-05-20T07:24:00.556Z,12.81
2023-05-20T07:25:00.535Z,12.81
2023-05-20T07:26:00.549Z,12.94
2023-05-20T07:27:00.586Z,12.94
2023-05-20T07:28:00.554Z,12.94
2023-05-20T07:29:00.664Z,12.94
2023-05-20T07:30:00.572Z,12.94
2023-05-20T07:31:00.535Z,13.26
2023-05-20T07:32:00.723Z,13.26
2023-05-20T07:33:00.550Z,13.26
2023-05-20T07:34:00.598Z,13.26
2023-05-20T07:35:00.559Z,13.26
2023-05-20T07:36:00.609Z,13.44
2023-05-20T07:37:00.634Z,13.44
2023-05-20T07:38:00.523Z,13.44
2023-05-20T07:39:03.904Z,13.44
2023-05-20T07:40:00.712Z,13.44
2023-05-20T07:41:00.515Z,13.79
2023-05-20T07:42:00.544Z,13.79
2023-05-20T07:43:00.524Z,13.79
2023-05-20T07:44:01.688Z,13.79
2023-05-20T07:45:00.525Z,13.79
2023-05-20T07:46:00.544Z,13.93
2023-05-20T07:47:00.567Z,13.93
2023-05-20T07:48:00.567Z,13.93
2023-05-20T07:49:00.616Z,13.93
2023-05-20T07:50:00.555Z,13.93
2023-05-20T07:51:00.545Z,14.06
2023-05-20T07:52:02.828Z,14.06
2023-05-20T07:53:00.746Z,14.06
2023-05-20T07:54:00.573Z,14.06
2023-05-20T07:55:00.544Z,14.06
2023-05-20T07:56:00.520Z,13.94
2023-05-20T07:57:00.519Z,13.94
2023-05-20T07:58:00.614Z,13.94
2023-05-20T07:59:00.701Z,13.94
2023-05-20T08:00:00.511Z,13.94
2023-05-20T08:01:00.547Z,13.97
2023-05-20T08:02:00.563Z,13.97
2023-05-20T08:03:00.742Z,13.97
2023-05-20T08:04:00.705Z,13.97
2023-05-20T08:05:00.522Z,13.97
2023-05-20T08:06:01.496Z,14.29
2023-05-20T08:07:00.525Z,14.29
2023-05-20T08:08:00.555Z,14.29
2023-05-20T08:09:00.787Z,14.29
2023-05-20T08:10:00.535Z,14.29
2023-05-20T08:11:00.629Z,14.36
2023-05-20T08:12:00.517Z,14.36
2023-05-20T08:13:00.549Z,14.36
2023-05-20T08:14:00.516Z,14.36
2023-05-20T08:15:00.517Z,14.36
2023-05-20T08:16:00.611Z,14.35
2023-05-20T08:17:00.567Z,14.35
2023-05-20T08:18:00.681Z,14.35
2023-05-20T08:19:00.678Z,14.35
2023-05-20T08:20:00.614Z,14.35
2023-05-20T08:21:00.508Z,14.49
2023-05-20T08:22:00.579Z,14.49
2023-05-20T08:23:00.556Z,14.49
2023-05-20T08:24:00.585Z,14.49
2023-05-20T08:25:00.561Z,14.49
2023-05-20T08:26:00.589Z,14.86
2023-05-20T08:27:00.517Z,14.86
2023-05-20T08:28:00.713Z,14.86
2023-05-20T08:29:00.526Z,14.86
2023-05-20T08:30:01.067Z,14.86
2023-05-20T08:31:00.689Z,15.01
2023-05-20T08:32:00.540Z,15.01
2023-05-20T08:33:00.590Z,15.01
2023-05-20T08:34:00.515Z,15.01
2023-05-20T08:35:00.607Z,15.01
2023-05-20T08:36:00.570Z,15.30
2023-05-20T08:37:00.513Z,15.30
2023-05-20T08:38:00.511Z,15.30
2023-05-20T08:39:00.526Z,15.30
2023-05-20T08:40:00.584Z,15.30
2023-05-20T08:41:03.117Z,15.34
2023-05-20T08:42:00.792Z,15.34
2023-05-20T08:43:00.754Z,15.34
2023-05-20T08:44:00.524Z,15.34
2023-05-20T08:45:00.883Z,15.34
2023-05-20T08:46:01.704Z,15.27
2023-05-20T08:47:01.377Z,15.27
2023-05-20T08:48:00.606Z,15.27
2023-05-20T08:49:01.041Z,15.27
2023-05-20T08:50:00.551Z,15.27
2023-05-20T08:51:01.723Z,15.52
2023-05-20T08:52:00.526Z,15.52
2023-05-20T08:53:00.551Z,15.52
2023-05-20T08:54:01.317Z,15.52
2023-05-20T08:55:01.536Z,15.52
2023-05-20T08:56:01.669Z,15.41
2023-05-20T08:57:00.563Z,15.41
2023-05-20T08:58:01.602Z,15.41
2023-05-20T08:59:00.545Z,15.41
2023-05-20T09:00:00.575Z,15.41
2023-05-20T09:01:00.522Z,15.83
2023-05-20T09:02:00.615Z,15.83
2023-05-20T09:03:01.266Z,15.83
2023-05-20T09:04:00.546Z,15.83
2023-05-20T09:05:00.544Z,15.83
2023-05-20T09:06:04.302Z,15.94
2023-05-20T09:07:00.519Z,15.94
2023-05-20T09:08:09.044Z,15.94
2023-05-20T09:09:00.539Z,15.94
2023-05-20T09:10:00.520Z,15.94
2023-05-20T09:11:00.555Z,16.01
2023-05-20T09:12:00.949Z,16.01
2023-05-20T09:13:00.558Z,16.01
2023-05-20T09:14:00.519Z,16.01
2023-05-20T09:15:00.561Z,16.01
2023-05-20T09:16:01.211Z,16.33
2023-05-20T09:17:00.525Z,16.33
2023-05-20T09:18:00.989Z,16.33
2023-05-20T09:19:00.554Z,16.33
2023-05-20T09:20:00.531Z,16.33
2023-05-20T09:21:03.957Z,16.43
2023-05-20T09:22:02.569Z,16.43
2023-05-20T09:23:01.964Z,16.43
2023-05-20T09:24:01.149Z,16.43
2023-05-20T09:25:01.100Z,16.43
2023-05-20T09:26:00.573Z,16.57
2023-05-20T09:27:00.534Z,16.57
2023-05-20T09:28:01.089Z,16.57
2023-05-20T09:29:00.534Z,16.57
2023-05-20T09:30:00.518Z,16.57
2023-05-20T09:31:00.580Z,16.34
2023-05-20T09:32:01.056Z,16.34
2023-05-20T09:33:02.836Z,16.34
2023-05-20T09:34:00.651Z,16.34
2023-05-20T09:35:00.507Z,16.34
2023-05-20T09:36:02.567Z,16.45
2023-05-20T09:37:00.708Z,16.45
2023-05-20T09:38:00.680Z,16.45
2023-05-20T09:39:01.764Z,16.45
2023-05-20T09:40:02.523Z,16.45
2023-05-20T09:41:02.589Z,16.86
2023-05-20T09:42:03.750Z,16.86
2023-05-20T09:43:02.470Z,16.86
2023-05-20T09:44:01.201Z,16.86
2023-05-20T09:45:00.986Z,16.86
2023-05-20T09:46:01.032Z,17.09
2023-05-20T09:47:01.011Z,17.09
2023-05-20T09:48:01.039Z,17.09
2023-05-20T09:49:01.656Z,17.09
2023-05-20T09:50:00.515Z,17.09
2023-05-20T09:51:00.611Z,17.28
2023-05-20T09:52:01.306Z,17.28
2023-05-20T09:53:03.089Z,17.28
2023-05-20T09:54:01.544Z,17.28
2023-05-20T09:55:01.665Z,17.28
2023-05-20T09:56:00.544Z,17.38
2023-05-20T09:57:02.197Z,17.38
2023-05-20T09:58:01.335Z,17.38
2023-05-20T09:59:01.408Z,17.38
2023-05-20T10:00:00.851Z,17.38
2023-05-20T10:01:00.555Z,17.26
2023-05-20T10:02:00.581Z,17.26
2023-05-20T10:03:00.680Z,17.26
2023-05-20T10:04:01.110Z,17.26
2023-05-20T10:05:02.479Z,17.26
2023-05-20T10:06:10.410Z,17.23
2023-05-20T10:07:01.454Z,17.23
2023-05-20T10:08:10.390Z,17.23
2023-05-20T10:09:08.186Z,17.23
2023-05-20T10:10:01.502Z,17.23
2023-05-20T10:11:03.713Z,17.49
2023-05-20T10:12:10.374Z,17.49
2023-05-20T10:13:10.378Z,17.49
2023-05-20T10:14:10.399Z,17.49
2023-05-20T10:15:01.446Z,17.49
2023-05-20T10:16:07.904Z,17.70
2023-05-20T10:17:04.801Z,17.70
2023-05-20T10:18:09.241Z,17.70
2023-05-20T10:19:03.801Z,17.70
2023-05-20T10:20:00.601Z,17.70
2023-05-20T10:21:00.523Z,17.80
2023-05-20T10:22:04.707Z,17.80
2023-05-20T10:23:00.522Z,17.80
2023-05-20T10:24:08.612Z,17.80
2023-05-20T10:25:04.996Z,17.80
2023-05-20T10:26:05.204Z,17.69
2023-05-20T10:27:01.884Z,17.69
2023-05-20T10:28:04.523Z,17.69
2023-05-20T10:29:00.565Z,17.69
2023-05-20T10:30:00.749Z,17.69
2023-05-20T10:31:00.922Z,17.86
2023-05-20T10:32:00.599Z,17.86
2023-05-20T10:33:02.800Z,17.86
2023-05-20T10:34:00.526Z,17.86
2023-05-20T10:35:01.351Z,17.86
2023-05-20T10:36:01.966Z,18.06
2023-05-20T10:37:00.515Z,18.06
2023-05-20T10:38:08.832Z,18.06
2023-05-20T10:39:00.519Z,18.06
2023-05-20T10:40:08.371Z,18.06
2023-05-20T10:41:09.033Z,18.13
2023-05-20T10:42:08.272Z,18.13
2023-05-20T10:43:07.978Z,18.13
2023-05-20T10:44:01.223Z,18.13
2023-05-20T10:45:00.528Z,18.13
2023-05-20T10:46:01.941Z,18.27
2023-05-20T10:47:23.713Z,18.27
2023-05-20T10:48:00.692Z,18.27
2023-05-20T10:49:01.132Z,18.27
2023-05-20T10:50:00.650Z,18.27
2023-05-20T10:51:01.458Z,18.22
2023-05-20T10:52:00.712Z,18.22
2023-05-20T10:53:02.501Z,18.22
2023-05-20T10:54:00.677Z,18.22
2023-05-20T10:55:00.562Z,18.22
2023-05-20T10:56:00.564Z,18.39
2023-05-20T10:57:05.097Z,18.39
2023-05-20T10:58:00.548Z,18.39
2023-05-20T10:59:00.661Z,18.39
2023-05-20T11:00:00.523Z,18.39
2023-05-20T11:01:00.773Z,18.48
2023-05-20T11:02:00.568Z,18.48
2023-05-20T11:03:00.636Z,18.48
2023-05-20T11:04:01.624Z,18.48
2023-05-20T11:05:01.038Z,18.48
2023-05-20T11:06:00.548Z,18.28
2023-05-20T11:07:00.529Z,18.28
2023-05-20T11:08:03.110Z,18.28
2023-05-20T11:09:04.042Z,18.28
2023-05-20T11:10:00.512Z,18.28
2023-05-20T11:11:00.576Z,18.24
2023-05-20T11:12:00.575Z,18.24
2023-05-20T11:13:00.955Z,18.24
2023-05-20T11:14:00.910Z,18.24
2023-05-20T11:15:00.578Z,18.24
2023-05-20T11:16:00.719Z,18.30
2023-05-20T11:17:00.895Z,18.30
2023-05-20T11:18:01.869Z,18.30
2023-05-20T11:19:00.635Z,18.30
2023-05-20T11:20:00.533Z,18.30
2023-05-20T11:21:01.047Z,18.42
2023-05-20T11:22:00.584Z,18.42
2023-05-20T11:23:00.910Z,18.42
2023-05-20T11:24:00.544Z,18.42
2023-05-20T11:25:03.768Z,18.42
2023-05-20T11:26:00.550Z,18.42
2023-05-20T11:27:01.012Z,18.42
2023-05-20T11:28:00.557Z,18.42
2023-05-20T11:29:01.607Z,18.42
2023-05-20T11:30:00.852Z,18.42
2023-05-20T11:31:00.532Z,18.68
2023-05-20T11:32:00.645Z,18.68
2023-05-20T11:33:02.478Z,18.68
2023-05-20T11:34:00.576Z,18.68
2023-05-20T11:35:00.517Z,18.68
2023-05-20T11:36:00.981Z,18.40
2023-05-20T11:37:00.519Z,18.40
2023-05-20T11:38:01.957Z,18.40
2023-05-20T11:39:00.531Z,18.40
2023-05-20T11:40:02.645Z,18.40
2023-05-20T11:41:00.561Z,18.78
2023-05-20T11:42:00.554Z,18.78
2023-05-20T11:43:01.104Z,18.78
2023-05-20T11:44:00.706Z,18.78
2023-05-20T11:45:01.295Z,18.78
2023-05-20T11:46:00.581Z,18.94
2023-05-20T11:47:01.199Z,18.94
2023-05-20T11:48:01.321Z,18.94
2023-05-20T11:49:00.539Z,18.94
2023-05-20T11:50:00.532Z,18.94
2023-05-20T11:51:02.450Z,19.10
2023-05-20T11:52:02.121Z,19.10
2023-05-20T11:53:01.803Z,19.10
2023-05-20T11:54:00.852Z,19.10
2023-05-20T11:55:00.513Z,19.10
2023-05-20T11:56:00.683Z,19.05
2023-05-20T11:57:01.184Z,19.05
2023-05-20T11:58:01.938Z,19.05
2023-05-20T11:59:00.516Z,19.05
2023-05-20T12:00:00.581Z,19.05
2023-05-20T12:01:09.503Z,19.02
2023-05-20T12:02:00.515Z,19.02
2023-05-20T12:03:00.607Z,19.02
2023-05-20T12:04:00.745Z,19.02
2023-05-20T12:05:00.667Z,19.02
2023-05-20T12:06:01.385Z,18.97
2023-05-20T12:07:00.518Z,18.97
2023-05-20T12:08:00.526Z,18.97
2023-05-20T12:09:01.090Z,18.97
2023-05-20T12:10:00.584Z,18.97
2023-05-20T12:11:00.529Z,19.29
2023-05-20T12:12:00.523Z,19.29
2023-05-20T12:13:00.527Z,19.29
2023-05-20T12:14:00.807Z,19.29
2023-05-20T12:15:00.540Z,19.29
2023-05-20T12:16:00.596Z,19.37
2023-05-20T12:17:00.520Z,19.37
2023-05-20T12:18:00.589Z,19.37
2023-05-20T12:19:00.623Z,19.37
2023-05-20T12:20:00.541Z,19.37
2023-05-20T12:21:00.565Z,19.36
2023-05-20T12:22:01.930Z,19.36
2023-05-20T12:23:00.577Z,19.36
2023-05-20T12:24:00.559Z,19.36
2023-05-20T12:25:00.523Z,19.36
2023-05-20T12:26:00.551Z,19.32
2023-05-20T12:27:00.522Z,19.32
2023-05-20T12:28:01.012Z,19.32
2023-05-20T12:29:00.532Z,19.32
2023-05-20T12:30:00.532Z,19.32
2023-05-20T12:31:00.516Z,19.39
2023-05-20T12:32:00.550Z,19.39
2023-05-20T12:33:00.643Z,19.39
2023-05-20T12:34:00.551Z,19.39
2023-05-20T12:35:00.554Z,19.39
2023-05-20T12:36:00.587Z,19.60
2023-05-20T12:37:00.544Z,19.60
2023-05-20T12:38:00.568Z,19.60
2023-05-20T12:39:00.518Z,19.60
2023-05-20T12:40:00.660Z,19.60
2023-05-20T12:41:00.556Z,19.63
2023-05-20T12:42:00.524Z,19.63
2023-05-20T12:43:01.282Z,19.63
2023-05-20T12:44:00.534Z,19.63
2023-05-20T12:45:00.515Z,19.63
2023-05-20T12:46:00.572Z,19.66
2023-05-20T12:47:00.744Z,19.66
2023-05-20T12:48:00.726Z,19.66
2023-05-20T12:49:00.658Z,19.66
2023-05-20T12:50:00.928Z,19.66
2023-05-20T12:51:00.531Z,19.44
2023-05-20T12:53:00.546Z,19.44